createdAt,value
2019-01-18T00:01:00.558Z,10.78
2019-01-18T00:03:30.191Z,10.74
2019-01-18T00:06:00.393Z,10.72
2019-01-18T00:08:30.011Z,10.65
2019-01-18T00:11:00.117Z,10.68
2019-01-18T00:13:30.274Z,10.68
2019-01-18T00:16:00.151Z,10.64
2019-01-18T00:18:30.426Z,10.59
2019-01-18T00:21:00.395Z,10.58
2019-01-18T00:23:30.714Z,10.58
2019-01-18T00:26:00.664Z,10.61
2019-01-18T00:28:30.872Z,10.60
2019-01-18T00:31:00.864Z,10.57
2019-01-18T00:33:30.957Z,10.59
2019-01-18T00:36:00.196Z,10.63
2019-01-18T00:38:29.787Z,10.61
2019-01-18T00:40:59.305Z,10.65
2019-01-18T00:43:29.405Z,10.70
2019-01-18T00:45:59.394Z,10.73
2019-01-18T00:48:28.828Z,10.69
2019-01-18T00:50:58.959Z,10.68
2019-01-18T00:53:29.310Z,10.67
2019-01-18T00:55:59.703Z,10.67
2019-01-18T00:58:29.981Z,10.65
2019-01-18T01:01:00.543Z,10.58
2019-01-18T01:03:30.934Z,10.60
2019-01-18T01:06:01.026Z,10.63
2019-01-18T01:08:31.549Z,10.64
2019-01-18T01:11:01.999Z,10.66
2019-01-18T01:13:32.828Z,10.76
2019-01-18T01:16:03.155Z,10.81
2019-01-18T01:18:33.314Z,10.89
2019-01-18T01:21:03.394Z,10.98
2019-01-18T01:23:33.908Z,10.99
2019-01-18T01:26:04.187Z,11.02
2019-01-18T01:28:34.266Z,11.13
2019-01-18T01:31:05.456Z,11.23
2019-01-18T01:33:35.071Z,11.32
2019-01-18T01:36:05.181Z,11.55
2019-01-18T01:38:35.554Z,11.70
2019-01-18T01:41:05.631Z,11.86
2019-01-18T01:43:36.032Z,11.99
2019-01-18T01:46:06.470Z,12.06
2019-01-18T01:48:36.499Z,12.15
2019-01-18T01:51:06.837Z,12.25
2019-01-18T01:53:36.987Z,12.34
2019-01-18T01:56:07.073Z,12.52
2019-01-18T01:58:37.187Z,12.70
2019-01-18T02:01:07.317Z,12.90
2019-01-18T02:03:37.431Z,13.03
2019-01-18T02:06:07.670Z,13.30
2019-01-18T02:08:38.115Z,13.66
2019-01-18T02:11:08.187Z,14.01
2019-01-18T02:13:38.311Z,14.20
2019-01-18T02:16:08.426Z,14.40
2019-01-18T02:18:38.558Z,14.66
2019-01-18T02:21:08.871Z,14.96
2019-01-18T02:23:39.031Z,15.29
2019-01-18T02:26:09.190Z,15.56
2019-01-18T02:28:39.067Z,15.86
2019-01-18T02:31:09.203Z,16.21
2019-01-18T02:33:39.698Z,16.67
2019-01-18T02:36:10.266Z,17.14
2019-01-18T02:38:41.011Z,17.48
2019-01-18T02:41:10.669Z,17.89
2019-01-18T02:43:40.563Z,18.11
2019-01-18T02:46:10.966Z,18.35
2019-01-18T02:48:41.123Z,18.79
2019-01-18T02:51:11.547Z,19.15
2019-01-18T02:53:42.108Z,19.41
2019-01-18T02:56:12.511Z,19.69
2019-01-18T02:58:42.583Z,19.99
2019-01-18T03:01:12.710Z,20.28
2019-01-18T03:03:42.952Z,20.61
2019-01-18T03:06:13.151Z,20.70
2019-01-18T03:08:43.548Z,20.98
2019-01-18T03:11:14.304Z,21.07
2019-01-18T03:13:44.103Z,21.24
2019-01-18T03:16:14.454Z,21.71
2019-01-18T03:18:45.152Z,21.98
2019-01-18T03:21:15.226Z,22.19
2019-01-18T03:23:45.334Z,21.99
2019-01-18T03:26:15.442Z,22.07
2019-01-18T03:28:45.501Z,22.35
2019-01-18T03:31:15.561Z,22.42
2019-01-18T03:33:46.193Z,22.41
2019-01-18T03:36:16.746Z,22.71
2019-01-18T03:38:46.847Z,22.60
2019-01-18T03:41:16.826Z,22.93
2019-01-18T03:43:46.667Z,23.25
2019-01-18T03:46:16.818Z,23.47
2019-01-18T03:48:47.432Z,23.41
2019-01-18T03:51:17.554Z,23.10
2019-01-18T03:53:47.670Z,23.05
2019-01-18T03:56:17.993Z,23.06
2019-01-18T03:58:48.408Z,23.34
2019-01-18T04:01:18.433Z,23.53
2019-01-18T04:03:48.856Z,23.58
2019-01-18T04:06:18.587Z,23.62
2019-01-18T04:08:48.991Z,23.86
2019-01-18T04:11:19.693Z,23.91
2019-01-18T04:13:50.196Z,24.05
2019-01-18T04:16:20.386Z,24.14
2019-01-18T04:18:50.610Z,24.10
2019-01-18T04:21:20.723Z,24.08
2019-01-18T04:23:50.863Z,23.91
2019-01-18T04:26:21.410Z,23.93
2019-01-18T04:28:52.022Z,23.95
2019-01-18T04:31:22.216Z,23.91
2019-01-18T04:33:52.467Z,23.94
2019-01-18T04:36:22.785Z,24.02
2019-01-18T04:38:53.441Z,24.41
2019-01-18T04:41:23.866Z,24.67
2019-01-18T04:43:54.038Z,24.94
2019-01-18T04:46:23.852Z,24.94
2019-01-18T04:48:54.228Z,24.73
2019-01-18T04:51:24.684Z,25.01
2019-01-18T04:53:54.645Z,25.12
2019-01-18T04:56:25.296Z,25.07
2019-01-18T04:58:55.097Z,25.06
2019-01-18T05:01:25.185Z,25.37
2019-01-18T05:03:54.990Z,25.54
2019-01-18T05:06:25.021Z,25.62
2019-01-18T05:08:55.420Z,25.88
2019-01-18T05:11:25.492Z,25.94
2019-01-18T05:13:55.665Z,26.00
2019-01-18T05:16:25.690Z,26.15
2019-01-18T05:18:55.734Z,26.20
2019-01-18T05:21:25.846Z,26.21
2019-01-18T05:23:55.944Z,26.28
2019-01-18T05:26:26.092Z,26.04
2019-01-18T05:28:56.707Z,26.31
2019-01-18T05:31:27.059Z,26.61
2019-01-18T05:33:56.939Z,26.81
2019-01-18T05:36:27.277Z,26.82
2019-01-18T05:38:57.649Z,27.21
2019-01-18T05:41:27.698Z,27.56
2019-01-18T05:43:57.849Z,27.42
2019-01-18T05:46:27.831Z,27.23
2019-01-18T05:48:57.960Z,27.02
2019-01-18T05:51:28.322Z,26.98
2019-01-18T05:53:58.403Z,26.92
2019-01-18T05:56:28.802Z,27.09
2019-01-18T05:58:59.252Z,27.17
2019-01-18T06:01:29.776Z,27.27
2019-01-18T06:04:00.000Z,27.62
2019-01-18T06:06:30.120Z,27.69
2019-01-18T06:09:00.481Z,27.66
2019-01-18T06:11:30.574Z,27.90
2019-01-18T06:14:00.831Z,28.09
2019-01-18T06:16:31.409Z,28.00
2019-01-18T06:19:01.378Z,27.84
2019-01-18T06:21:31.543Z,27.89
2019-01-18T06:24:01.627Z,27.93
2019-01-18T06:26:31.678Z,27.61
2019-01-18T06:29:01.582Z,27.84
2019-01-18T06:31:31.734Z,28.15
2019-01-18T06:34:02.256Z,28.27
2019-01-18T06:36:32.324Z,28.44
2019-01-18T06:39:02.723Z,28.57
2019-01-18T06:41:32.816Z,28.31
2019-01-18T06:44:02.919Z,28.55
2019-01-18T06:46:33.293Z,28.56
2019-01-18T06:49:03.497Z,28.46
2019-01-18T06:51:33.766Z,28.45
2019-01-18T06:54:04.227Z,28.44
2019-01-18T06:56:34.232Z,28.12
2019-01-18T06:59:04.334Z,27.94
2019-01-18T07:01:34.739Z,27.49
2019-01-18T07:04:04.833Z,27.61
2019-01-18T07:06:34.919Z,27.63
2019-01-18T07:09:04.936Z,27.52
2019-01-18T07:11:35.078Z,27.59
2019-01-18T07:14:05.625Z,27.84
2019-01-18T07:16:36.197Z,27.94
2019-01-18T07:19:06.067Z,27.93
2019-01-18T07:21:36.359Z,27.91
2019-01-18T07:24:06.222Z,27.75
2019-01-18T07:26:37.034Z,27.83
2019-01-18T07:29:07.333Z,28.03
2019-01-18T07:31:37.600Z,28.25
2019-01-18T07:34:07.841Z,27.98
2019-01-18T07:36:38.424Z,27.87
2019-01-18T07:39:08.980Z,27.74
2019-01-18T07:41:38.939Z,27.53
2019-01-18T07:44:09.055Z,27.48
2019-01-18T07:46:39.077Z,27.61
2019-01-18T07:49:09.816Z,27.73
2019-01-18T07:51:40.042Z,28.09
2019-01-18T07:54:10.363Z,28.03
2019-01-18T07:56:40.379Z,28.26
2019-01-18T07:59:10.397Z,28.20
2019-01-18T08:01:40.691Z,28.03
2019-01-18T08:04:11.228Z,27.95
2019-01-18T08:06:41.641Z,27.57
2019-01-18T08:09:12.042Z,27.82
2019-01-18T08:11:42.088Z,27.93
2019-01-18T08:14:11.910Z,27.85
2019-01-18T08:16:43.574Z,27.97
2019-01-18T08:19:13.288Z,28.12
2019-01-18T08:21:43.407Z,28.33
2019-01-18T08:24:13.446Z,28.15
2019-01-18T08:26:43.657Z,28.16
2019-01-18T08:29:14.203Z,27.99
2019-01-18T08:31:44.084Z,27.95
2019-01-18T08:34:14.232Z,27.88
2019-01-18T08:36:44.513Z,27.86
2019-01-18T08:39:14.580Z,28.01
2019-01-18T08:41:44.681Z,28.08
2019-01-18T08:44:14.435Z,27.81
2019-01-18T08:46:44.637Z,27.68
2019-01-18T08:49:15.037Z,27.65
2019-01-18T08:51:45.324Z,27.53
2019-01-18T08:54:15.400Z,27.41
2019-01-18T08:56:45.370Z,27.46
2019-01-18T08:59:15.286Z,27.48
2019-01-18T09:01:45.248Z,27.50
2019-01-18T09:04:15.640Z,27.61
2019-01-18T09:06:45.781Z,27.44
2019-01-18T09:09:15.889Z,27.57
2019-01-18T09:11:46.126Z,27.64
2019-01-18T09:14:19.404Z,27.54
2019-01-18T09:16:46.725Z,27.44
2019-01-18T09:19:16.810Z,27.46
2019-01-18T09:21:46.597Z,27.53
2019-01-18T09:24:16.987Z,27.46
2019-01-18T09:26:47.546Z,27.41
2019-01-18T09:29:17.756Z,27.27
2019-01-18T09:31:47.686Z,27.25
2019-01-18T09:34:17.882Z,27.41
2019-01-18T09:36:47.620Z,27.23
2019-01-18T09:39:17.527Z,27.31
2019-01-18T09:41:47.449Z,27.30
2019-01-18T09:44:17.456Z,27.43
2019-01-18T09:46:47.499Z,27.54
2019-01-18T09:49:17.470Z,27.46
2019-01-18T09:51:47.626Z,27.59
2019-01-18T09:54:17.623Z,27.61
2019-01-18T09:56:47.313Z,27.76
2019-01-18T09:59:17.660Z,27.81
2019-01-18T10:01:49.499Z,27.95
2019-01-18T10:04:18.500Z,27.98
2019-01-18T10:06:48.984Z,27.94
2019-01-18T10:09:19.153Z,27.69
2019-01-18T10:11:49.109Z,27.69
2019-01-18T10:14:18.953Z,27.58
2019-01-18T10:16:48.886Z,27.44
2019-01-18T10:19:18.400Z,27.27
2019-01-18T10:21:48.475Z,27.20
2019-01-18T10:24:18.633Z,27.03
2019-01-18T10:26:48.436Z,26.84
2019-01-18T10:29:18.423Z,26.51
2019-01-18T10:31:48.588Z,26.23
2019-01-18T10:34:18.506Z,26.24
2019-01-18T10:36:48.747Z,26.21
2019-01-18T10:39:18.894Z,26.23
2019-01-18T10:41:48.794Z,26.27
2019-01-18T10:44:18.827Z,26.29
2019-01-18T10:46:49.122Z,26.20
2019-01-18T10:49:19.817Z,26.03
2019-01-18T10:51:51.076Z,25.89
2019-01-18T10:54:21.007Z,25.65
2019-01-18T10:56:51.213Z,25.41
2019-01-18T10:59:20.862Z,25.21
2019-01-18T11:01:50.570Z,25.00
2019-01-18T11:04:20.673Z,24.76
2019-01-18T11:06:50.984Z,24.62
2019-01-18T11:09:21.315Z,24.42
2019-01-18T11:11:51.241Z,24.26
2019-01-18T11:14:21.546Z,24.08
2019-01-18T11:16:51.263Z,23.92
2019-01-18T11:19:21.632Z,23.71
2019-01-18T11:21:51.456Z,23.55
2019-01-18T11:24:21.429Z,23.34
2019-01-18T11:26:51.949Z,23.09
2019-01-18T11:29:22.028Z,22.92
2019-01-18T11:31:51.999Z,22.74
2019-01-18T11:34:21.892Z,22.38
2019-01-18T11:36:56.410Z,22.19
2019-01-18T11:39:22.855Z,21.97
2019-01-18T11:41:52.881Z,21.85
2019-01-18T11:44:22.903Z,21.72
2019-01-18T11:46:52.990Z,21.57
2019-01-18T11:49:23.028Z,21.45
2019-01-18T11:51:52.852Z,21.32
2019-01-18T11:54:23.130Z,21.12
2019-01-18T11:56:52.673Z,20.96
2019-01-18T11:59:22.969Z,20.79
2019-01-18T12:01:53.111Z,20.66
2019-01-18T12:04:23.220Z,20.50
2019-01-18T12:06:53.195Z,20.29
2019-01-18T12:09:23.355Z,20.12
2019-01-18T12:11:53.470Z,20.02
2019-01-18T12:14:23.334Z,19.93
2019-01-18T12:16:53.553Z,19.73
2019-01-18T12:19:23.461Z,19.65
2019-01-18T12:21:53.669Z,19.51
2019-01-18T12:24:23.883Z,19.40
2019-01-18T12:26:54.171Z,19.19
2019-01-18T12:29:24.625Z,19.08
2019-01-18T12:31:54.452Z,18.97
2019-01-18T12:34:24.793Z,18.91
2019-01-18T12:36:58.969Z,18.79
2019-01-18T12:39:25.644Z,18.68
2019-01-18T12:41:56.027Z,18.68
2019-01-18T12:44:26.109Z,18.61
2019-01-18T12:46:56.334Z,18.58
2019-01-18T12:49:26.210Z,18.50
2019-01-18T12:51:55.949Z,18.41
2019-01-18T12:54:25.942Z,18.32
2019-01-18T12:56:55.811Z,18.21
2019-01-18T12:59:25.977Z,18.16
2019-01-18T13:01:55.711Z,18.08
2019-01-18T13:04:25.682Z,18.05
2019-01-18T13:06:55.794Z,18.02
2019-01-18T13:09:25.839Z,17.96
2019-01-18T13:11:55.965Z,17.88
2019-01-18T13:14:25.935Z,17.82
2019-01-18T13:16:56.015Z,17.78
2019-01-18T13:19:26.118Z,17.72
2019-01-18T13:21:56.318Z,17.63
2019-01-18T13:24:26.591Z,17.52
2019-01-18T13:26:56.171Z,17.49
2019-01-18T13:29:26.461Z,17.39
2019-01-18T13:31:56.822Z,17.23
2019-01-18T13:34:26.811Z,17.17
2019-01-18T13:36:56.644Z,17.02
2019-01-18T13:39:27.135Z,16.99
2019-01-18T13:41:57.441Z,16.94
2019-01-18T13:44:27.385Z,16.89
2019-01-18T13:46:57.398Z,16.81
2019-01-18T13:49:27.741Z,16.75
2019-01-18T13:51:58.201Z,16.68
2019-01-18T13:54:28.155Z,16.57
2019-01-18T13:56:57.839Z,16.50
2019-01-18T13:59:28.318Z,16.45
2019-01-18T14:01:58.205Z,16.38
2019-01-18T14:04:28.216Z,16.35
2019-01-18T14:06:58.272Z,16.27
2019-01-18T14:09:28.456Z,16.23
2019-01-18T14:11:58.227Z,16.25
2019-01-18T14:14:28.196Z,16.25
2019-01-18T14:16:58.515Z,16.21
2019-01-18T14:19:29.000Z,16.17
2019-01-18T14:21:59.257Z,16.16
2019-01-18T14:24:29.177Z,16.14
2019-01-18T14:26:58.982Z,16.12
2019-01-18T14:29:29.008Z,16.15
2019-01-18T14:31:59.061Z,16.12
2019-01-18T14:34:29.165Z,16.07
2019-01-18T14:36:59.263Z,16.10
2019-01-18T14:39:29.276Z,16.16
2019-01-18T14:41:59.377Z,16.04
2019-01-18T14:44:29.523Z,15.99
2019-01-18T14:46:59.335Z,15.93
2019-01-18T14:49:32.574Z,15.91
2019-01-18T14:52:00.377Z,15.89
2019-01-18T14:54:30.306Z,15.88
2019-01-18T14:57:00.226Z,15.87
2019-01-18T14:59:30.290Z,15.85
2019-01-18T15:02:00.203Z,15.91
2019-01-18T15:04:30.582Z,15.92
2019-01-18T15:07:00.447Z,15.87
2019-01-18T15:09:30.462Z,15.89
2019-01-18T15:12:00.427Z,15.98
2019-01-18T15:14:30.327Z,15.92
2019-01-18T15:17:00.481Z,15.81
2019-01-18T15:19:30.677Z,15.80
2019-01-18T15:22:00.928Z,15.54
2019-01-18T15:24:31.011Z,15.34
2019-01-18T15:27:00.932Z,15.20
2019-01-18T15:29:31.238Z,15.16
2019-01-18T15:32:01.273Z,15.16
2019-01-18T15:34:31.299Z,15.13
2019-01-18T15:37:01.746Z,15.10
2019-01-18T15:39:31.961Z,15.00
2019-01-18T15:42:02.066Z,15.11
2019-01-18T15:44:32.323Z,15.01
2019-01-18T15:47:02.528Z,15.00
2019-01-18T15:49:32.614Z,14.88
2019-01-18T15:52:02.428Z,14.85
2019-01-18T15:54:32.658Z,14.88
2019-01-18T15:57:03.085Z,14.89
2019-01-18T15:59:33.188Z,14.78
2019-01-18T16:02:02.884Z,14.76
2019-01-18T16:04:32.826Z,14.85
2019-01-18T16:07:02.546Z,14.81
2019-01-18T16:09:32.801Z,14.80
2019-01-18T16:12:03.197Z,14.74
2019-01-18T16:14:33.400Z,14.73
2019-01-18T16:17:03.389Z,14.78
2019-01-18T16:19:33.777Z,14.72
2019-01-18T16:22:03.380Z,14.78
2019-01-18T16:24:33.309Z,14.70
2019-01-18T16:27:03.475Z,14.69
2019-01-18T16:29:33.312Z,14.64
2019-01-18T16:32:03.192Z,14.56
2019-01-18T16:34:33.119Z,14.54
2019-01-18T16:37:03.346Z,14.57
2019-01-18T16:39:33.484Z,14.65
2019-01-18T16:42:03.585Z,14.73
2019-01-18T16:44:33.130Z,14.78
2019-01-18T16:47:03.707Z,14.66
2019-01-18T16:49:33.823Z,14.50
2019-01-18T16:52:03.846Z,14.38
2019-01-18T16:54:34.101Z,14.29
2019-01-18T16:57:04.437Z,14.25
2019-01-18T16:59:34.712Z,14.19
2019-01-18T17:02:04.762Z,14.12
2019-01-18T17:04:35.543Z,14.09
2019-01-18T17:07:05.914Z,14.12
2019-01-18T17:09:35.801Z,14.04
2019-01-18T17:12:05.773Z,14.02
2019-01-18T17:14:35.389Z,13.98
2019-01-18T17:17:05.560Z,13.97
2019-01-18T17:19:35.458Z,13.96
2019-01-18T17:22:05.929Z,13.97
2019-01-18T17:24:36.168Z,13.97
2019-01-18T17:27:06.036Z,13.93
2019-01-18T17:29:36.709Z,13.84
2019-01-18T17:32:06.845Z,13.81
2019-01-18T17:34:36.702Z,13.76
2019-01-18T17:37:07.012Z,13.71
2019-01-18T17:39:37.160Z,13.51
2019-01-18T17:42:07.223Z,13.49
2019-01-18T17:44:37.063Z,13.48
2019-01-18T17:47:06.997Z,13.51
2019-01-18T17:49:37.005Z,13.48
2019-01-18T17:52:06.801Z,13.43
2019-01-18T17:54:36.957Z,13.23
2019-01-18T17:57:07.252Z,13.13
2019-01-18T17:59:37.636Z,13.17
2019-01-18T18:02:07.631Z,13.19
2019-01-18T18:04:37.464Z,13.19
2019-01-18T18:07:07.937Z,13.15
2019-01-18T18:09:37.971Z,13.22
2019-01-18T18:12:08.419Z,13.18
2019-01-18T18:14:38.110Z,13.16
2019-01-18T18:17:08.196Z,13.16
2019-01-18T18:19:38.646Z,13.19
2019-01-18T18:22:08.748Z,13.26
2019-01-18T18:24:38.559Z,13.23
2019-01-18T18:27:08.587Z,13.21
2019-01-18T18:29:38.697Z,13.24
2019-01-18T18:32:08.600Z,13.20
2019-01-18T18:34:40.491Z,13.15
2019-01-18T18:37:11.062Z,13.12
2019-01-18T18:39:41.120Z,13.11
2019-01-18T18:42:11.248Z,13.12
2019-01-18T18:44:40.768Z,13.12
2019-01-18T18:47:11.081Z,13.12
2019-01-18T18:49:41.184Z,13.12
2019-01-18T18:52:10.863Z,13.09
2019-01-18T18:54:40.962Z,13.08
2019-01-18T18:57:10.931Z,13.04
2019-01-18T18:59:40.739Z,12.98
2019-01-18T19:02:10.542Z,12.96
2019-01-18T19:04:40.378Z,12.81
2019-01-18T19:07:09.999Z,12.81
2019-01-18T19:09:40.193Z,12.79
2019-01-18T19:12:09.898Z,12.80
2019-01-18T19:14:39.743Z,12.74
2019-01-18T19:17:09.840Z,12.74
2019-01-18T19:19:39.426Z,12.77
2019-01-18T19:22:09.937Z,12.77
2019-01-18T19:24:40.325Z,12.80
2019-01-18T19:27:10.300Z,12.83
2019-01-18T19:29:40.239Z,12.77
2019-01-18T19:32:10.242Z,12.79
2019-01-18T19:34:40.778Z,12.75
2019-01-18T19:37:11.089Z,12.67
2019-01-18T19:39:41.013Z,12.70
2019-01-18T19:42:10.814Z,12.63
2019-01-18T19:44:41.002Z,12.57
2019-01-18T19:47:11.216Z,12.56
2019-01-18T19:49:41.174Z,12.44
2019-01-18T19:52:11.211Z,12.49
2019-01-18T19:54:41.309Z,12.49
2019-01-18T19:57:11.918Z,12.53
2019-01-18T19:59:42.462Z,12.48
2019-01-18T20:02:12.626Z,12.40
2019-01-18T20:04:43.018Z,12.38
2019-01-18T20:07:13.204Z,12.37
2019-01-18T20:09:43.107Z,12.32
2019-01-18T20:12:13.233Z,12.23
2019-01-18T20:14:43.529Z,12.21
2019-01-18T20:17:13.468Z,12.25
2019-01-18T20:19:43.320Z,12.18
2019-01-18T20:22:13.326Z,12.23
2019-01-18T20:24:43.288Z,12.14
2019-01-18T20:27:12.919Z,12.19
2019-01-18T20:29:42.790Z,12.26
2019-01-18T20:32:13.162Z,12.27
2019-01-18T20:34:43.551Z,12.22
2019-01-18T20:37:13.653Z,12.23
2019-01-18T20:39:43.661Z,12.36
2019-01-18T20:42:13.672Z,12.32
2019-01-18T20:44:43.604Z,12.31
2019-01-18T20:47:13.722Z,12.32
2019-01-18T20:49:44.459Z,12.30
2019-01-18T20:52:14.262Z,12.27
2019-01-18T20:54:44.533Z,12.20
2019-01-18T20:57:14.549Z,12.22
2019-01-18T20:59:45.298Z,12.23
2019-01-18T21:02:15.735Z,12.29
2019-01-18T21:04:45.696Z,12.34
2019-01-18T21:07:15.798Z,12.32
2019-01-18T21:09:46.004Z,12.28
2019-01-18T21:12:15.909Z,12.26
2019-01-18T21:14:45.977Z,12.26
2019-01-18T21:17:15.650Z,12.27
2019-01-18T21:19:45.621Z,12.23
2019-01-18T21:22:15.800Z,12.23
2019-01-18T21:24:45.996Z,12.25
2019-01-18T21:27:16.388Z,12.20
2019-01-18T21:29:46.269Z,12.20
2019-01-18T21:32:16.376Z,12.13
2019-01-18T21:34:46.424Z,12.13
2019-01-18T21:37:16.400Z,12.11
2019-01-18T21:39:46.939Z,12.14
2019-01-18T21:42:17.386Z,12.16
2019-01-18T21:44:47.514Z,12.20
2019-01-18T21:47:17.598Z,12.18
2019-01-18T21:49:47.777Z,12.19
2019-01-18T21:52:17.661Z,12.19
2019-01-18T21:54:47.425Z,12.17
2019-01-18T21:57:17.026Z,12.17
2019-01-18T21:59:46.989Z,12.16
2019-01-18T22:02:16.457Z,12.18
2019-01-18T22:04:46.474Z,12.22
2019-01-18T22:07:16.788Z,12.20
2019-01-18T22:09:46.322Z,12.26
2019-01-18T22:12:16.547Z,12.32
2019-01-18T22:14:46.904Z,12.35
2019-01-18T22:17:16.756Z,12.31
2019-01-18T22:19:47.186Z,12.34
2019-01-18T22:22:17.637Z,12.37
2019-01-18T22:24:47.696Z,12.34
2019-01-18T22:27:17.776Z,12.27
2019-01-18T22:29:47.767Z,12.25
2019-01-18T22:32:17.889Z,12.25
2019-01-18T22:34:48.141Z,12.29
2019-01-18T22:37:18.234Z,12.29
2019-01-18T22:39:48.154Z,12.22
2019-01-18T22:42:18.358Z,12.25
2019-01-18T22:44:48.403Z,12.28
2019-01-18T22:47:18.714Z,12.22
2019-01-18T22:49:48.701Z,12.21
2019-01-18T22:52:18.717Z,12.31
2019-01-18T22:54:48.640Z,12.40
2019-01-18T22:57:18.806Z,12.47
2019-01-18T22:59:49.179Z,12.51
2019-01-18T23:02:19.422Z,12.34
2019-01-18T23:04:55.233Z,12.32
2019-01-18T23:07:19.730Z,12.22
2019-01-18T23:09:49.797Z,12.12
2019-01-18T23:12:19.529Z,12.08
2019-01-18T23:14:49.288Z,12.01
2019-01-18T23:17:19.797Z,11.94
2019-01-18T23:19:50.432Z,11.84
2019-01-18T23:22:20.801Z,11.79
2019-01-18T23:24:50.914Z,11.77
2019-01-18T23:27:20.990Z,11.79
2019-01-18T23:29:50.671Z,11.64
2019-01-18T23:32:20.914Z,11.62
2019-01-18T23:34:51.082Z,11.63
2019-01-18T23:37:21.435Z,11.62
2019-01-18T23:39:51.592Z,11.60
2019-01-18T23:42:21.412Z,11.65
2019-01-18T23:44:51.119Z,11.66
2019-01-18T23:47:21.013Z,11.66
2019-01-18T23:49:51.088Z,11.64
2019-01-18T23:52:21.111Z,11.64
2019-01-18T23:54:51.202Z,11.69
2019-01-18T23:57:20.954Z,11.77
2019-01-18T23:59:51.230Z,11.77
